Time;durP1;ratioP1;P1;durP2;ratioP2;P2;SDS_P1;SDS_P2;PMS_P1;PMS_P2;Temp;Humidity;BMP_temperature;BMP_pressure;BME280_temperature;BME280_humidity;BME280_pressure;Samples;Min_cycle;Max_cycle;Signal;HPM_P1;HPM_P2
2022/04/10 00:01:38;;;;;;;6.63;4.28;;;;;;;12.66;51.15;93746.78;5075171;28;20260;-68
2022/04/10 00:04:09;;;;;;;4.78;4.03;;;;;;;12.50;51.76;93747.22;5075876;28;20251;-67
2022/04/10 00:06:37;;;;;;;4.88;4.38;;;;;;;12.40;51.27;93748.03;5074865;28;20209;-67
2022/04/10 00:09:06;;;;;;;6.78;4.22;;;;;;;12.41;51.44;93752.34;5074580;28;20616;-67
2022/04/10 00:11:36;;;;;;;5.50;4.03;;;;;;;12.44;51.53;93753.56;5074423;28;20217;-67
2022/04/10 00:14:04;;;;;;;6.82;4.05;;;;;;;12.37;52.14;93751.56;5075694;28;20239;-67
2022/04/10 00:16:33;;;;;;;4.20;3.78;;;;;;;12.37;51.01;93740.50;5075685;28;20188;-67
2022/04/10 00:19:04;;;;;;;4.72;3.80;;;;;;;12.50;49.49;93732.63;5075643;28;20185;-67
2022/04/10 00:21:35;;;;;;;4.30;3.70;;;;;;;12.61;48.69;93738.13;5074651;28;20205;-68
2022/04/10 00:24:02;;;;;;;5.25;3.67;;;;;;;12.59;50.17;93743.25;5075271;28;20221;-67
2022/04/10 00:26:30;;;;;;;5.18;3.92;;;;;;;12.48;50.44;93751.56;5074719;28;20204;-67
2022/04/10 00:29:01;;;;;;;6.10;3.80;;;;;;;12.37;50.32;93748.81;5075721;28;20268;-67
2022/04/10 00:31:29;;;;;;;6.05;4.00;;;;;;;12.31;51.10;93747.66;5074466;28;20201;-67
2022/04/10 00:33:56;;;;;;;5.13;3.78;;;;;;;12.31;50.48;93744.06;5074588;28;20586;-67
2022/04/10 00:36:25;;;;;;;4.82;3.90;;;;;;;12.37;50.14;93742.50;5074574;28;20582;-67
2022/04/10 00:38:56;;;;;;;6.13;4.28;;;;;;;12.39;50.76;93740.91;5075048;28;20196;-67
2022/04/10 00:41:25;;;;;;;6.53;4.28;;;;;;;12.31;50.13;93744.06;5075233;28;20254;-67
2022/04/10 00:44:11;;;;;;;6.60;4.60;;;;;;;12.30;49.59;93754.34;5074033;28;20221;-67
2022/04/10 00:46:40;;;;;;;7.45;4.40;;;;;;;12.33;49.06;93752.78;5075297;28;20180;-67
2022/04/10 00:49:09;;;;;;;5.15;4.30;;;;;;;12.36;49.42;93751.97;5074370;28;20291;-67
2022/04/10 00:51:46;;;;;;;5.82;4.15;;;;;;;12.34;48.53;93737.75;5074292;28;20208;-67
2022/04/10 00:54:16;;;;;;;5.05;4.22;;;;;;;12.39;48.14;93727.09;5074281;28;20201;-67
2022/04/10 00:56:46;;;;;;;5.45;4.20;;;;;;;12.42;48.41;93720.78;5074265;28;20201;-67
2022/04/10 00:59:18;;;;;;;7.95;5.65;;;;;;;12.43;49.60;93708.53;5074160;28;20254;-68
2022/04/10 01:01:46;;;;;;;7.65;5.13;;;;;;;12.31;49.38;93706.19;5087224;28;20622;-68
2022/04/10 01:04:16;;;;;;;6.80;5.00;;;;;;;12.21;49.08;93704.22;5077492;28;20220;-68
2022/04/10 01:06:44;;;;;;;9.00;5.80;;;;;;;12.19;49.77;93701.03;5077566;28;20274;-67
2022/04/10 01:09:12;;;;;;;8.48;4.95;;;;;;;12.18;51.05;93694.72;5095190;28;20196;-67
2022/04/10 01:11:40;;;;;;;7.30;5.07;;;;;;;12.15;49.81;93691.97;5095002;28;20194;-68
2022/04/10 01:14:09;;;;;;;6.95;5.18;;;;;;;12.22;48.70;93678.94;5077368;28;20596;-68
2022/04/10 01:16:39;;;;;;;7.68;5.47;;;;;;;12.24;48.24;93684.84;5077460;28;20193;-68
2022/04/10 01:19:08;;;;;;;5.95;4.93;;;;;;;12.29;48.37;93689.97;5077414;28;20235;-68
2022/04/10 01:21:40;;;;;;;8.65;5.20;;;;;;;12.35;48.23;93676.56;5077949;28;20199;-68
2022/04/10 01:24:13;;;;;;;5.57;5.07;;;;;;;12.35;49.09;93684.84;5098597;28;20240;-68
2022/04/10 01:26:45;;;;;;;6.65;5.00;;;;;;;12.22;49.25;93689.97;5081455;28;20199;-68
2022/04/10 01:29:15;;;;;;;7.45;5.13;;;;;;;12.23;49.15;93691.56;5099150;28;20234;-68
2022/04/10 01:31:44;;;;;;;7.65;4.90;;;;;;;12.27;48.87;93697.88;5098758;28;20191;-68
2022/04/10 01:34:14;;;;;;;7.30;4.82;;;;;;;12.22;48.38;93694.72;5081398;28;20200;-68
2022/04/10 01:36:43;;;;;;;6.07;4.05;;;;;;;12.18;48.33;93689.19;5081051;28;20201;-67
2022/04/10 01:39:13;;;;;;;5.47;4.35;;;;;;;12.13;48.45;93708.16;5098614;28;20181;-67
2022/04/10 01:41:41;;;;;;;6.88;4.03;;;;;;;12.10;48.63;93712.50;5098674;28;20268;-68
2022/04/10 01:44:10;;;;;;;3.95;3.55;;;;;;;12.13;48.11;93705.38;5081148;28;20238;-68
2022/04/10 01:46:38;;;;;;;4.40;3.58;;;;;;;12.08;48.50;93712.09;5081007;28;20203;-68
2022/04/10 01:49:09;;;;;;;5.13;4.18;;;;;;;12.03;48.25;93707.78;5098791;28;20212;-68
2022/04/10 01:51:37;;;;;;;6.95;3.88;;;;;;;12.02;48.48;93697.91;5080959;28;20200;-68
2022/04/10 01:54:07;;;;;;;6.43;3.95;;;;;;;12.05;48.23;93696.31;5098407;28;20216;-68
2022/04/10 01:56:37;;;;;;;5.85;4.13;;;;;;;11.99;48.29;93695.16;5098176;28;20263;-68
2022/04/10 01:59:05;;;;;;;6.65;4.00;;;;;;;11.95;48.58;93683.31;5098609;28;20626;-68
2022/04/10 02:01:33;;;;;;;6.18;3.97;;;;;;;11.91;49.22;93693.53;5077413;28;20233;-68
2022/04/10 02:04:01;;;;;;;5.55;3.72;;;;;;;11.87;49.52;93679.72;5078335;28;20213;-67
2022/04/10 02:06:30;;;;;;;6.47;3.63;;;;;;;11.80;50.00;93686.03;5078157;28;20208;-67
2022/04/10 02:08:58;;;;;;;4.90;3.30;;;;;;;11.69;51.19;93679.72;5077188;28;20215;-68
2022/04/10 02:11:26;;;;;;;7.63;3.55;;;;;;;11.55;51.23;93680.50;5077812;28;20195;-68
2022/04/10 02:13:55;;;;;;;5.68;3.60;;;;;;;11.54;52.06;93669.81;5077876;28;20616;-68
2022/04/10 02:16:23;;;;;;;6.15;3.38;;;;;;;11.54;51.82;93672.59;5077117;28;20199;-68
2022/04/10 02:18:53;;;;;;;5.90;3.47;;;;;;;11.54;50.98;93681.66;5077809;28;20266;-68
2022/04/10 02:21:20;;;;;;;5.57;3.83;;;;;;;11.61;50.43;93682.84;5077172;28;20608;-68
2022/04/10 02:23:49;;;;;;;6.55;3.70;;;;;;;11.64;51.96;93685.63;5077716;28;20307;-68
2022/04/10 02:26:17;;;;;;;9.50;3.67;;;;;;;11.70;52.02;93699.84;5077799;28;20217;-67
2022/04/10 02:28:45;;;;;;;5.93;3.70;;;;;;;11.67;52.70;93690.34;5076768;28;20556;-67
2022/04/10 02:31:14;;;;;;;6.65;3.97;;;;;;;11.62;51.93;93687.19;5076454;28;20239;-68
2022/04/10 02:33:45;;;;;;;6.18;3.85;;;;;;;11.55;52.39;93688.00;5076238;28;20182;-68
2022/04/10 02:36:16;;;;;;;6.22;4.07;;;;;;;11.54;52.77;93683.63;5076398;28;20291;-68
2022/04/10 02:38:45;;;;;;;7.25;3.80;;;;;;;11.55;52.60;93683.25;5076255;28;20567;-67
2022/04/10 02:41:13;;;;;;;5.72;3.40;;;;;;;11.53;51.72;93677.31;5077207;28;20604;-68
2022/04/10 02:43:44;;;;;;;5.95;3.55;;;;;;;11.46;52.34;93685.59;5077131;28;20658;-68
2022/04/10 02:46:12;;;;;;;5.53;3.90;;;;;;;11.51;52.70;93692.69;5076457;28;20209;-67
2022/04/10 02:48:47;;;;;;;5.38;3.75;;;;;;;11.54;52.63;93692.69;5076412;28;20243;-68
2022/04/10 02:51:16;;;;;;;5.47;3.75;;;;;;;11.61;51.70;93694.69;5076577;28;20235;-67
2022/04/10 02:53:44;;;;;;;4.72;3.35;;;;;;;11.70;51.43;93694.31;5076634;28;20233;-67
2022/04/10 02:56:12;;;;;;;5.03;3.80;;;;;;;11.73;52.48;93694.31;5077365;28;20199;-67
2022/04/10 02:58:40;;;;;;;4.75;3.80;;;;;;;11.80;52.36;93693.50;5076846;28;20196;-68
2022/04/10 03:01:09;;;;;;;4.20;3.60;;;;;;;11.88;52.78;93706.19;5083476;28;20238;-68
2022/04/10 03:03:37;;;;;;;6.97;4.18;;;;;;;11.89;53.08;93713.28;5097173;28;20231;-67
2022/04/10 03:06:06;;;;;;;5.57;3.88;;;;;;;11.90;52.85;93709.34;5097302;28;20219;-67
2022/04/10 03:08:36;;;;;;;6.78;4.45;;;;;;;11.91;53.66;93715.66;5097051;28;20196;-67
2022/04/10 03:11:04;;;;;;;5.43;4.15;;;;;;;11.89;52.80;93702.25;5079553;28;20254;-67
2022/04/10 03:13:33;;;;;;;7.70;4.68;;;;;;;11.84;53.69;93688.03;5079537;28;20202;-68
2022/04/10 03:16:01;;;;;;;6.22;4.30;;;;;;;11.84;54.25;93688.84;5079126;28;20278;-68
2022/04/10 03:18:29;;;;;;;6.35;4.35;;;;;;;11.81;54.72;93701.41;5096671;28;20304;-68
2022/04/10 03:20:57;;;;;;;6.72;4.75;;;;;;;11.80;55.70;93721.13;5079242;28;20205;-68
2022/04/10 03:23:26;;;;;;;6.95;4.05;;;;;;;11.79;54.31;93725.09;5096536;28;20638;-68
2022/04/10 03:25:53;;;;;;;6.03;3.50;;;;;;;11.82;56.01;93736.13;5078799;28;20704;-68
2022/04/10 03:28:21;;;;;;;3.95;3.55;;;;;;;11.79;55.40;93738.91;5096895;28;20192;-68
2022/04/10 03:30:50;;;;;;;5.57;3.80;;;;;;;11.81;55.07;93729.03;5078749;28;20227;-68
2022/04/10 03:33:18;;;;;;;3.88;3.47;;;;;;;11.83;57.01;93720.34;5078842;28;20201;-68
2022/04/10 03:35:46;;;;;;;4.90;3.75;;;;;;;11.80;55.83;93726.66;5079207;28;20204;-68
2022/04/10 03:38:14;;;;;;;5.10;3.95;;;;;;;11.79;54.27;93723.09;5096699;28;20216;-68
2022/04/10 03:40:44;;;;;;;4.88;3.40;;;;;;;11.77;55.74;93724.72;5078799;28;20249;-68
2022/04/10 03:43:12;;;;;;;4.90;3.50;;;;;;;11.73;56.00;93715.63;5078984;28;20200;-68
2022/04/10 03:45:39;;;;;;;5.60;3.78;;;;;;;11.72;56.05;93720.34;5095447;28;20231;-68
2022/04/10 03:48:08;;;;;;;5.63;3.88;;;;;;;11.76;55.08;93715.63;5096546;28;20216;-68
2022/04/10 03:50:37;;;;;;;8.05;4.03;;;;;;;11.73;55.88;93724.69;5096334;28;20197;-67
2022/04/10 03:53:06;;;;;;;4.63;4.18;;;;;;;11.67;55.79;93739.28;5078308;28;20223;-67
2022/04/10 03:55:34;;;;;;;6.93;4.50;;;;;;;11.64;57.04;93735.31;5096279;28;20211;-67
2022/04/10 03:58:03;;;;;;;5.60;4.75;;;;;;;11.60;56.79;93740.06;5078482;28;20261;-67
2022/04/10 04:00:30;;;;;;;5.82;4.47;;;;;;;11.55;56.60;93743.22;5077466;28;20202;-67
2022/04/10 04:02:57;;;;;;;5.25;4.40;;;;;;;11.55;57.51;93751.50;5078379;28;20261;-67
2022/04/10 04:05:24;;;;;;;6.22;4.47;;;;;;;11.49;57.35;93742.00;5096248;28;20220;-67
2022/04/10 04:07:55;;;;;;;7.85;5.13;;;;;;;11.48;57.52;93748.72;5078146;28;20608;-67
2022/04/10 04:10:24;;;;;;;5.32;4.70;;;;;;;11.51;57.03;93754.25;5077927;28;20199;-67
2022/04/10 04:12:52;;;;;;;5.22;4.65;;;;;;;11.53;57.57;93764.91;5095664;28;20522;-67
2022/04/10 04:18:07;;;;;;;5.88;4.90;;;;;;;11.44;58.23;93778.28;5034530;28;20202;-67
2022/04/10 04:20:36;;;;;;;5.57;4.88;;;;;;;11.46;58.25;93781.44;5095459;28;20185;-67
2022/04/10 04:23:08;;;;;;;6.68;5.68;;;;;;;11.44;58.63;93784.59;5095790;28;20259;-68
2022/04/10 04:25:42;;;;;;;7.88;7.18;;;;;;;11.38;58.38;93786.16;5078178;28;20208;-68
2022/04/10 04:28:10;;;;;;;7.95;7.35;;;;;;;11.45;58.86;93790.91;5095724;28;20253;-68
2022/04/10 04:30:40;;;;;;;9.98;8.98;;;;;;;11.33;59.28;93798.38;5095229;28;20207;-68
2022/04/10 04:33:24;;;;;;;11.25;10.35;;;;;;;11.19;59.30;93805.78;5077534;28;20202;-68
2022/04/10 04:35:52;;;;;;;12.20;11.20;;;;;;;11.12;59.95;93817.59;5077760;28;20500;-68
2022/04/10 04:38:20;;;;;;;12.40;11.20;;;;;;;11.03;59.69;93823.44;5077857;28;20197;-68
2022/04/10 04:41:01;;;;;;;11.27;10.38;;;;;;;11.00;60.22;93820.66;5095685;28;20189;-68
2022/04/10 04:43:29;;;;;;;13.15;11.93;;;;;;;10.84;60.11;93834.75;5095509;28;20245;-68
2022/04/10 04:45:59;;;;;;;12.00;11.00;;;;;;;10.68;60.22;93828.75;5095195;28;20200;-67
2022/04/10 04:48:29;;;;;;;12.52;11.43;;;;;;;10.58;60.29;93844.03;5095162;28;20184;-67
2022/04/10 04:50:57;;;;;;;12.73;11.63;;;;;;;10.42;60.77;93858.09;5095400;28;20188;-67
2022/04/10 04:53:25;;;;;;;14.02;12.63;;;;;;;10.37;60.87;93852.94;5095132;28;20271;-67
2022/04/10 04:55:53;;;;;;;13.75;12.50;;;;;;;10.25;61.24;93858.72;5094988;28;20227;-67
2022/04/10 04:58:21;;;;;;;13.43;12.18;;;;;;;10.28;61.76;93863.50;5077302;28;20561;-67
2022/04/10 05:00:49;;;;;;;13.13;11.93;;;;;;;10.25;61.16;93848.50;5094917;28;20248;-67
2022/04/10 05:03:20;;;;;;;13.48;12.35;;;;;;;10.18;61.06;93864.94;5095304;28;20188;-67
2022/04/10 05:05:50;;;;;;;13.65;12.25;;;;;;;10.07;61.48;93869.56;5077799;28;20257;-67
2022/04/10 05:08:19;;;;;;;13.48;12.18;;;;;;;10.01;61.71;93860.84;5077309;28;20196;-68
2022/04/10 05:10:47;;;;;;;12.55;11.40;;;;;;;10.02;61.74;93864.38;5077465;28;20228;-68
2022/04/10 05:13:16;;;;;;;13.18;11.95;;;;;;;9.96;62.21;93874.16;5094817;28;20546;-67
2022/04/10 05:15:44;;;;;;;12.75;11.50;;;;;;;9.92;62.50;93874.13;5094924;28;20195;-70
2022/04/10 05:18:13;;;;;;;13.32;12.13;;;;;;;9.92;62.92;93892.63;5094918;28;20230;-68
2022/04/10 05:20:46;;;;;;;12.95;11.77;;;;;;;9.82;62.23;93875.59;5077388;28;20214;-68
2022/04/10 05:23:19;;;;;;;12.32;11.23;;;;;;;9.82;62.95;93888.56;5094887;28;20188;-68
2022/04/10 05:25:48;;;;;;;13.45;12.25;;;;;;;9.85;62.64;93885.84;5077477;28;20227;-68
2022/04/10 05:28:16;;;;;;;13.18;12.07;;;;;;;9.72;62.71;93878.22;5077332;28;20184;-68
2022/04/10 05:30:44;;;;;;;13.10;12.00;;;;;;;9.62;62.93;93880.50;5094735;28;20192;-69
2022/04/10 05:33:12;;;;;;;12.45;11.35;;;;;;;9.65;62.95;93882.47;5077222;28;20234;-68
2022/04/10 05:35:41;;;;;;;13.07;11.98;;;;;;;9.65;63.54;93887.97;5077618;28;20220;-69
2022/04/10 05:38:11;;;;;;;12.82;11.73;;;;;;;9.71;63.51;93893.16;5077395;28;20239;-67
2022/04/10 05:40:38;;;;;;;13.65;12.45;;;;;;;9.76;63.19;93888.09;5075897;28;20420;-67
2022/04/10 05:43:06;;;;;;;11.80;10.80;;;;;;;9.80;62.97;93899.16;5094772;28;20277;-67
2022/04/10 05:45:37;;;;;;;11.88;10.77;;;;;;;9.71;62.51;93896.72;5077519;28;20212;-66
2022/04/10 05:48:05;;;;;;;12.50;11.30;;;;;;;9.71;62.27;93904.97;5094999;28;20235;-66
2022/04/10 05:50:37;;;;;;;13.18;11.98;;;;;;;9.67;62.28;93906.09;5094565;28;20223;-66
2022/04/10 05:53:06;;;;;;;12.23;11.07;;;;;;;9.68;61.69;93916.72;5094856;28;20269;-67
2022/04/10 05:55:41;;;;;;;10.65;9.73;;;;;;;9.75;61.98;93905.00;5077190;28;20536;-67
2022/04/10 05:58:09;;;;;;;10.77;9.77;;;;;;;9.80;61.02;93910.19;5094370;28;20192;-67
2022/04/10 06:00:38;;;;;;;11.10;10.10;;;;;;;9.75;61.04;93921.53;5094180;28;20177;-67
2022/04/10 06:03:06;;;;;;;10.57;9.68;;;;;;;9.58;60.96;93925.66;5077299;28;20250;-67
2022/04/10 06:05:34;;;;;;;10.60;9.70;;;;;;;9.47;61.60;93920.00;5076671;28;20690;-67
2022/04/10 06:08:04;;;;;;;9.90;9.10;;;;;;;9.47;61.04;93933.75;5094687;28;20177;-67
2022/04/10 06:10:33;;;;;;;9.30;8.50;;;;;;;9.46;60.94;93937.69;5098092;28;20505;-67
2022/04/10 06:13:09;;;;;;;8.88;8.18;;;;;;;9.38;61.22;93947.03;5098535;28;20188;-67
2022/04/10 06:15:40;;;;;;;9.07;8.35;;;;;;;9.34;60.94;93941.47;5098413;28;20184;-67
2022/04/10 06:18:09;;;;;;;8.23;7.55;;;;;;;9.28;61.10;93948.47;5080184;28;20196;-67
2022/04/10 06:20:39;;;;;;;8.63;7.82;;;;;;;9.23;60.99;93946.03;5098147;28;20199;-67
2022/04/10 06:23:07;;;;;;;9.02;8.23;;;;;;;9.21;61.73;93950.31;5080355;28;20533;-67
2022/04/10 06:25:36;;;;;;;8.57;7.85;;;;;;;9.29;61.93;93946.50;5079922;28;20222;-67
2022/04/10 06:28:05;;;;;;;8.35;7.63;;;;;;;9.36;61.01;93943.84;5080263;28;20265;-67
2022/04/10 06:30:35;;;;;;;7.95;7.18;;;;;;;9.42;60.72;93952.59;5080272;28;20201;-67
2022/04/10 06:33:10;;;;;;;7.28;6.68;;;;;;;9.32;61.22;93937.50;5080610;28;20234;-67
2022/04/10 06:35:40;;;;;;;7.35;6.70;;;;;;;9.27;60.75;93943.34;5097767;28;20188;-67
2022/04/10 06:38:08;;;;;;;5.95;5.45;;;;;;;9.23;60.97;93948.00;5080101;28;20200;-67
2022/04/10 06:40:37;;;;;;;6.20;5.70;;;;;;;9.15;61.77;93941.59;5079607;28;20632;-67
2022/04/10 06:43:08;;;;;;;5.63;5.22;;;;;;;9.13;61.37;93946.66;5097959;28;20212;-67
2022/04/10 06:45:39;;;;;;;5.75;5.25;;;;;;;9.03;61.90;93948.09;5079988;28;20626;-67
2022/04/10 06:48:07;;;;;;;5.68;5.07;;;;;;;9.09;61.49;93943.88;5079624;28;20208;-67
2022/04/10 06:50:38;;;;;;;5.85;5.32;;;;;;;9.10;61.64;93944.66;5079817;28;20204;-67
2022/04/10 06:53:06;;;;;;;5.22;4.82;;;;;;;9.07;61.39;93948.94;5097289;28;20199;-67
2022/04/10 06:55:35;;;;;;;5.43;5.03;;;;;;;9.04;61.31;93946.94;5097528;28;20283;-67
2022/04/10 06:58:03;;;;;;;5.40;5.00;;;;;;;8.91;61.89;93945.56;5079319;28;20227;-67
2022/04/10 07:00:30;;;;;;;5.05;4.65;;;;;;;8.87;61.30;93934.50;5097086;28;20191;-67
2022/04/10 07:03:03;;;;;;;4.93;4.53;;;;;;;8.92;61.74;93934.19;5097099;28;20188;-67
2022/04/10 07:05:31;;;;;;;5.00;4.50;;;;;;;8.91;61.67;93938.09;5079664;28;20224;-67
2022/04/10 07:07:59;;;;;;;4.45;4.05;;;;;;;8.96;61.74;93930.69;5096990;28;20661;-67
2022/04/10 07:10:28;;;;;;;4.47;4.07;;;;;;;9.06;61.18;93941.84;5079452;28;20619;-67
2022/04/10 07:12:58;;;;;;;4.15;3.85;;;;;;;9.02;60.96;93940.22;5096854;28;20192;-67
2022/04/10 07:15:27;;;;;;;4.15;3.85;;;;;;;9.04;60.78;93937.88;5097137;28;20270;-67
2022/04/10 07:17:56;;;;;;;4.05;3.75;;;;;;;9.02;61.24;93945.72;5096865;28;20249;-67
2022/04/10 07:20:26;;;;;;;3.58;3.30;;;;;;;8.95;61.44;93937.38;5096907;28;20218;-67
2022/04/10 07:25:42;;;;;;;3.50;3.20;;;;;;;8.82;60.72;93937.59;5096931;28;20314;-67
2022/04/10 07:28:09;;;;;;;3.30;3.00;;;;;;;8.79;60.28;93941.06;5079146;28;20181;-67
2022/04/10 07:30:38;;;;;;;3.22;2.75;;;;;;;8.79;60.30;93949.31;5078914;28;20204;-67
2022/04/10 07:33:07;;;;;;;4.20;3.80;;;;;;;8.89;60.43;93950.63;5096781;28;20263;-67
2022/04/10 07:35:40;;;;;;;3.50;3.20;;;;;;;9.00;59.75;93951.56;5078998;28;20236;-67
2022/04/10 07:38:08;;;;;;;2.90;2.70;;;;;;;9.05;59.04;93954.03;5096815;28;20212;-67
2022/04/10 07:40:35;;;;;;;3.20;3.00;;;;;;;9.12;59.04;93961.59;5096583;28;20188;-67
2022/04/10 07:43:03;;;;;;;2.67;2.47;;;;;;;9.11;58.29;93958.06;5096748;28;20203;-67
2022/04/10 07:48:18;;;;;;;2.60;2.40;;;;;;;8.99;57.90;93961.00;5078384;28;20611;-67
2022/04/10 07:50:48;;;;;;;2.80;2.60;;;;;;;8.99;58.52;93958.25;5095845;28;20215;-67
2022/04/10 07:53:16;;;;;;;2.58;2.38;;;;;;;8.93;58.03;93959.72;5096495;28;20197;-67
2022/04/10 07:55:44;;;;;;;2.20;2.00;;;;;;;8.95;58.08;93959.38;5078244;28;20581;-67
2022/04/10 07:58:13;;;;;;;2.10;2.00;;;;;;;9.01;57.63;93968.91;5096486;28;20208;-67
2022/04/10 08:00:40;;;;;;;1.98;1.80;;;;;;;8.96;57.83;93978.22;5077942;28;20215;-68
2022/04/10 08:03:09;;;;;;;1.63;1.52;;;;;;;8.88;57.64;93971.03;5096095;28;20185;-67
2022/04/10 08:05:37;;;;;;;1.73;1.63;;;;;;;8.83;57.33;93963.13;5078718;28;20224;-67
2022/04/10 08:08:11;;;;;;;1.52;1.42;;;;;;;8.88;57.39;93965.53;5078477;28;20287;-67
2022/04/10 08:10:40;;;;;;;1.77;1.67;;;;;;;8.86;57.22;93970.59;5095669;28;20282;-67
2022/04/10 08:13:08;;;;;;;1.63;1.52;;;;;;;8.85;57.95;93988.28;5077914;28;20232;-67
2022/04/10 08:15:39;;;;;;;1.50;1.40;;;;;;;8.83;57.37;93974.13;5078382;28;20196;-67
2022/04/10 08:18:08;;;;;;;1.42;1.33;;;;;;;8.77;56.87;93981.88;5078225;28;20201;-67
2022/04/10 08:20:38;;;;;;;1.60;1.15;;;;;;;8.67;56.58;93986.00;5095948;28;20185;-67
2022/04/10 08:23:08;;;;;;;1.10;1.10;;;;;;;8.61;56.58;93990.25;5078303;28;20219;-67
2022/04/10 08:25:37;;;;;;;1.00;1.00;;;;;;;8.37;57.11;93988.63;5095955;28;20277;-67
2022/04/10 08:28:08;;;;;;;1.10;1.10;;;;;;;8.40;57.61;93996.16;5078002;28;20206;-67
2022/04/10 08:30:35;;;;;;;1.40;1.30;;;;;;;8.49;57.02;93993.16;5095365;28;20523;-67
2022/04/10 08:33:03;;;;;;;1.80;1.40;;;;;;;8.50;57.39;94000.25;5077886;28;20208;-67
2022/04/10 08:35:32;;;;;;;1.33;1.20;;;;;;;8.55;57.84;94004.66;5095682;28;20279;-67
2022/04/10 08:38:01;;;;;;;1.52;1.42;;;;;;;8.57;57.66;94016.06;5077751;28;20299;-67
2022/04/10 08:40:35;;;;;;;1.50;1.40;;;;;;;8.27;57.79;94033.16;5095381;28;20169;-67
2022/04/10 08:43:03;;;;;;;1.30;1.20;;;;;;;8.19;57.72;94034.19;5095583;28;20212;-67
2022/04/10 08:45:34;;;;;;;1.40;1.30;;;;;;;8.09;58.16;94046.53;5077925;28;20255;-67
2022/04/10 08:48:04;;;;;;;1.50;1.40;;;;;;;8.04;59.47;94049.59;5077960;28;20291;-67
2022/04/10 08:50:34;;;;;;;1.67;1.30;;;;;;;8.02;58.84;94051.09;5095446;28;20187;-67
2022/04/10 08:53:07;;;;;;;1.13;1.10;;;;;;;7.94;59.09;94061.13;5095477;28;20325;-67
2022/04/10 08:55:37;;;;;;;1.23;1.23;;;;;;;7.90;59.61;94052.03;5077839;28;20218;-67
2022/04/10 08:58:06;;;;;;;1.10;1.10;;;;;;;7.92;59.52;94063.47;5095546;28;20185;-66
2022/04/10 09:00:35;;;;;;;1.10;1.10;;;;;;;7.77;59.58;94069.78;5077229;28;20200;-66
2022/04/10 09:03:02;;;;;;;1.00;1.00;;;;;;;7.66;59.90;94070.38;5077942;28;20196;-68
2022/04/10 09:05:31;;;;;;;1.00;1.00;;;;;;;7.53;60.09;94068.91;5095054;28;20259;-66
2022/04/10 09:08:11;;;;;;;1.50;1.40;;;;;;;7.52;60.64;94077.50;5077580;28;20196;-67
2022/04/10 09:10:59;;;;;;;1.40;1.30;;;;;;;7.46;60.44;94075.00;5077619;28;20204;-66
2022/04/10 09:13:32;;;;;;;1.10;1.10;;;;;;;7.31;60.55;94069.56;5095106;28;20257;-67
2022/04/10 09:16:21;;;;;;;0.90;0.90;;;;;;;7.21;61.39;94065.41;5095285;28;20180;-66
2022/04/10 09:18:54;;;;;;;1.30;1.20;;;;;;;7.31;61.85;94075.03;5077420;28;20200;-67
2022/04/10 09:21:25;;;;;;;1.40;1.30;;;;;;;7.36;61.16;94069.28;5077569;28;20578;-65
2022/04/10 09:23:59;;;;;;;1.88;1.77;;;;;;;7.37;60.93;94068.13;5095040;28;20196;-65
2022/04/10 09:26:47;;;;;;;1.40;1.30;;;;;;;7.29;60.08;94061.66;5077448;28;20300;-65
2022/04/10 09:29:16;;;;;;;1.38;1.30;;;;;;;7.07;60.44;94067.81;5077761;28;20291;-65
2022/04/10 09:31:45;;;;;;;1.43;1.33;;;;;;;7.10;60.66;94067.91;5094916;28;20249;-65
2022/04/10 09:34:16;;;;;;;1.70;1.60;;;;;;;7.19;60.54;94081.44;5077568;28;20233;-64
2022/04/10 09:36:46;;;;;;;1.38;1.30;;;;;;;7.26;61.22;94081.56;5077555;28;20196;-65
2022/04/10 09:39:16;;;;;;;1.50;1.40;;;;;;;7.22;61.56;94072.47;5095244;28;20195;-66
2022/04/10 09:41:46;;;;;;;1.60;1.50;;;;;;;7.24;61.57;94067.44;5077489;28;20224;-66
2022/04/10 09:44:20;;;;;;;1.60;1.50;;;;;;;7.32;61.18;94071.16;5079675;28;20275;-66
2022/04/10 09:47:00;;;;;;;1.67;1.58;;;;;;;7.29;61.92;94074.59;5099084;28;20530;-66
2022/04/10 09:49:32;;;;;;;1.50;1.40;;;;;;;7.34;60.98;94077.88;5099014;28;20199;-66
2022/04/10 09:52:06;;;;;;;1.50;1.40;;;;;;;7.32;61.00;94090.34;5099094;28;20188;-66
2022/04/10 09:54:40;;;;;;;1.70;1.40;;;;;;;7.37;61.76;94088.13;5081067;28;20196;-66
2022/04/10 09:57:11;;;;;;;1.88;1.77;;;;;;;7.42;61.54;94093.34;5098840;28;20259;-66
2022/04/10 09:59:44;;;;;;;1.45;1.35;;;;;;;7.38;61.41;94099.91;5080940;28;20204;-66
2022/04/10 10:02:13;;;;;;;1.13;1.05;;;;;;;7.24;60.28;94094.88;5098216;28;20251;-66
2022/04/10 10:04:42;;;;;;;1.20;1.20;;;;;;;7.26;61.55;94098.03;5098782;28;20256;-66
2022/04/10 10:07:10;;;;;;;1.00;1.00;;;;;;;7.29;61.19;94102.81;5098601;28;20204;-67
2022/04/10 10:09:40;;;;;;;0.90;0.90;;;;;;;7.22;61.31;94095.19;5099027;28;20219;-66
2022/04/10 10:12:12;;;;;;;1.40;1.20;;;;;;;7.14;61.48;94098.94;5080661;28;20235;-66
2022/04/10 10:14:40;;;;;;;1.38;1.27;;;;;;;7.16;62.15;94096.66;5080822;28;20615;-66
2022/04/10 10:17:10;;;;;;;1.15;1.15;;;;;;;7.20;62.00;94085.75;5098512;28;20191;-66
2022/04/10 10:19:41;;;;;;;0.90;0.90;;;;;;;7.16;60.79;94088.41;5080749;28;20224;-66
2022/04/10 10:22:11;;;;;;;1.30;1.20;;;;;;;7.11;61.52;94085.94;5080196;28;20294;-66
2022/04/10 10:24:47;;;;;;;1.50;1.25;;;;;;;7.00;62.25;94077.44;5098057;28;20201;-67
2022/04/10 10:27:42;;;;;;;1.58;1.48;;;;;;;7.00;62.63;94077.44;5080774;28;20256;-68
2022/04/10 10:30:25;;;;;;;2.25;1.63;;;;;;;7.00;61.44;94079.38;5099079;28;20195;-67
2022/04/10 10:32:57;;;;;;;2.00;1.80;;;;;;;6.94;62.61;94073.41;5098712;28;20181;-67
2022/04/10 10:35:31;;;;;;;2.03;1.80;;;;;;;7.00;63.67;94062.94;5098898;28;20196;-67
2022/04/10 10:38:00;;;;;;;1.77;1.67;;;;;;;7.06;63.21;94067.00;5080548;28;20239;-67
2022/04/10 10:40:29;;;;;;;4.25;2.38;;;;;;;7.09;63.68;94066.31;5098128;28;20188;-67
2022/04/10 10:43:04;;;;;;;1.75;1.65;;;;;;;7.24;62.90;94075.66;5081257;28;20275;-66
2022/04/10 10:45:38;;;;;;;1.80;1.70;;;;;;;7.29;62.79;94067.16;5098551;28;20271;-66
2022/04/10 10:48:25;;;;;;;1.30;1.20;;;;;;;7.33;62.63;94057.06;5098114;28;20238;-66
2022/04/10 10:50:54;;;;;;;2.03;1.50;;;;;;;7.36;62.74;94058.31;5097946;28;20275;-66
2022/04/10 10:53:42;;;;;;;1.58;1.42;;;;;;;7.36;62.59;94055.56;5098542;28;20257;-67
2022/04/10 10:56:14;;;;;;;1.50;1.40;;;;;;;7.28;62.54;94053.81;5080603;28;20604;-66
2022/04/10 10:58:42;;;;;;;2.00;1.80;;;;;;;7.17;62.59;94045.34;5080068;28;20204;-66
2022/04/10 11:01:17;;;;;;;1.70;1.60;;;;;;;7.12;63.32;94051.09;5098066;28;20305;-66
2022/04/10 11:04:00;;;;;;;1.48;1.38;;;;;;;7.07;63.11;94057.63;5080037;28;20207;-66
2022/04/10 11:06:30;;;;;;;1.60;1.40;;;;;;;6.96;63.31;94051.88;5098871;28;20517;-66
2022/04/10 11:09:19;;;;;;;1.63;1.52;;;;;;;6.93;63.51;94040.84;5098549;28;20188;-66
2022/04/10 11:11:48;;;;;;;1.33;1.23;;;;;;;6.92;63.20;94036.50;5080605;28;20204;-66
2022/04/10 11:14:39;;;;;;;1.40;1.30;;;;;;;6.93;63.61;94040.84;5080567;28;20211;-66
2022/04/10 11:17:14;;;;;;;1.50;1.40;;;;;;;6.87;62.67;94047.75;5080247;28;20200;-66
2022/04/10 11:19:45;;;;;;;1.77;1.67;;;;;;;6.83;62.67;94047.66;5080241;28;20200;-66
2022/04/10 11:22:19;;;;;;;1.70;1.60;;;;;;;6.75;62.91;94054.09;5098211;28;20177;-66
2022/04/10 11:24:51;;;;;;;1.35;1.25;;;;;;;6.71;62.49;94053.22;5080026;28;20202;-67
2022/04/10 11:27:40;;;;;;;1.25;1.15;;;;;;;6.64;62.11;94053.81;5097755;28;20254;-66
2022/04/10 11:30:17;;;;;;;1.15;1.10;;;;;;;6.58;63.40;94052.50;5080286;28;20218;-66
2022/04/10 11:32:46;;;;;;;1.40;1.30;;;;;;;6.53;63.40;94043.75;5079297;28;20188;-67
2022/04/10 11:35:22;;;;;;;1.73;1.63;;;;;;;6.51;64.05;94053.13;5097082;28;20184;-67
2022/04/10 11:37:52;;;;;;;1.98;1.70;;;;;;;6.51;63.94;94061.34;5079518;28;20291;-67
2022/04/10 11:40:25;;;;;;;1.83;1.70;;;;;;;6.51;63.97;94053.13;5096843;28;20188;-67
2022/04/10 11:42:55;;;;;;;2.15;1.95;;;;;;;6.49;63.59;94052.66;5078930;28;20201;-67
2022/04/10 11:45:30;;;;;;;2.15;2.05;;;;;;;6.49;63.65;94046.38;5079251;28;20232;-67
2022/04/10 11:47:59;;;;;;;1.95;1.75;;;;;;;6.49;63.55;94036.22;5096275;28;20294;-67
2022/04/10 11:50:29;;;;;;;2.88;2.00;;;;;;;6.54;64.46;94042.63;5078992;28;20196;-67
2022/04/10 11:53:04;;;;;;;2.60;2.40;;;;;;;6.57;65.10;94037.19;5078630;28;20250;-67
2022/04/10 11:55:36;;;;;;;2.10;2.00;;;;;;;6.65;65.30;94033.50;5096681;28;20195;-67
2022/04/10 11:58:17;;;;;;;2.08;1.98;;;;;;;6.65;64.89;94030.78;5096613;28;20196;-67
2022/04/10 12:00:54;;;;;;;2.40;2.20;;;;;;;6.70;65.48;94033.25;5078677;28;20211;-67